Warning: Javascript must be enabled to use all the features on this page!


Page Loading - Please Wait...

Click to hideNews Bulletins

Peak Streamflow for the Nation

USGS 05470500 Ioway Creek at Ames, IA

Story County, Iowa
Hydrologic Unit Code 07080105
Latitude  42°01'23", Longitude  93°37'49" NAD27
Drainage area 204  square miles
Gage datum 881.00 feet above NGVD29
Output formats
Table
Graph
Tab-separated file
peakfq (watstore) format
Reselect output format
Water
Year
Date Gage
Height
(feet)
Stream-
flow
(cfs)
1918 1918-06-04 14.50 6,9007
1920 1919-10-04 8.60 2,260
1921 1921-09-17 7.40 1,900
1922 1922-07-17 10.70 4,130
1923 1923-09-28 6.10 1,340
1924 1924-07-28 8.80 3,170
1925 1925-08-07 4.906 791
1926 1926-09-19 10.20 3,610
1927 1926-10-04 5.80 1,060
1965 1965-03-01 10.706 4,200
1966 1966-06-12 10.15 3,160
1967 1967-06-12 6.92 2,020
1968 1968-06-25 8.27 2,500
1969 1968-11-20 9.59 2,970
1970 1970-05-13 10.74 3,540
1971 1971-02-19 10.09 3,650
1972 1972-08-02 5.84 1,680
1973 1973-04-16 8.69 2,800
1974 1974-06-22 8.95 2,900
1975 1975-06-27 14.00 11,300
1976 1976-06-14 8.55 2,680
1977 1977-08-16 8.01 2,430
1978 1978-09-14 7.51 2,230
1979 1979-03-19 11.81 5,300
1980 1980-05-30 4.69 1,250
1981 1981-06-24 4.26 1,060
1982 1982-07-18 10.30 3,820
1983 1983-05-19 7.63 2,260
1984 1984-06-13 12.97 7,180
1985 1985-03-04 6.97 2,030
1986 1986-06-30 10.21 3,750
1987 1987-08-26 8.03 2,490
1988 1988-02-19 3.22 656
1989 1989-05-24 7.01 2,050
1990 1990-06-17 15.97 12,500
1991 1991-06-04 9.41 3,000
1992 1992-07-16 6.88 1,910
1993 1993-07-09 18.54 24,300
1994 1994-06-24 8.66 2,920
1995 1995-02-20 8.131 2,3002
1996 1996-06-17 15.29 12,700
1997 1997-02-18 8.79 3,580
1998 1998-06-15 11.57 5,290
1999 1999-06-11 7.53 3,160
2000 2000-06-14 3.18 614
2001 2001-03-16 4.112 1,160
2002 2002-05-12 5.08 1,620
2003 2003-07-09 7.80 3,200
2004 2004-05-25 6.58 2,380
2005 2005-02-14 4.97 1,570
2006 2006-09-12 6.10 2,140
2007 2007-04-26 11.79 5,570
2008 2008-05-30 15.85 12,600
2009 2009-02-10 7.44 2,860
2010 2010-08-11 18.13 22,400
2011 2011-04-26 4.17 1,220
2012 2012-04-14 3.13 453
2013 2013-05-27 9.41 4,280
2014 2014-07-01 11.222 5,740
2015 2015-08-29 10.69 5,490
2016 2015-12-15 10.36 5,510
2017 2017-05-01 5.095,2 1,390
2018 2018-06-15 12.19 7,120
2019 2019-03-14 10.68 5,590
?
  Peak Gage-Height Qualification Codes.
?
  Peak Streamflow Qualification Codes.